createdAt,value
2022-11-15T00:00:51.953Z,30
2022-11-15T00:06:08.404Z,28
2022-11-15T00:11:24.878Z,31
2022-11-15T00:16:41.982Z,31
2022-11-15T00:21:58.449Z,30
2022-11-15T00:27:14.940Z,32
2022-11-15T00:32:31.401Z,32
2022-11-15T00:37:47.898Z,32
2022-11-15T00:43:04.397Z,27
2022-11-15T00:48:20.850Z,30
2022-11-15T00:53:37.315Z,26
2022-11-15T00:58:53.758Z,26
2022-11-15T01:04:10.237Z,23
2022-11-15T01:09:26.680Z,22
2022-11-15T01:14:43.117Z,20
2022-11-15T01:19:59.632Z,20
2022-11-15T01:25:16.085Z,22
2022-11-15T01:30:32.567Z,20
2022-11-15T01:35:49.038Z,22
2022-11-15T01:41:06.346Z,22
2022-11-15T01:46:22.821Z,22
2022-11-15T01:51:38.988Z,19
2022-11-15T01:56:55.488Z,23
2022-11-15T02:02:11.916Z,20
2022-11-15T02:07:28.515Z,23
2022-11-15T02:12:44.917Z,20
2022-11-15T02:18:07.537Z,22
2022-11-15T02:23:23.992Z,23
2022-11-15T02:28:40.197Z,23
2022-11-15T02:33:57.261Z,21
2022-11-15T02:39:13.710Z,20
2022-11-15T02:44:30.170Z,17
2022-11-15T02:49:46.588Z,20
2022-11-15T02:55:03.065Z,18
2022-11-15T03:00:19.502Z,16
2022-11-15T03:05:35.972Z,18
2022-11-15T03:10:52.437Z,19
2022-11-15T03:16:08.864Z,20
2022-11-15T03:21:25.380Z,22
2022-11-15T03:26:41.817Z,19
2022-11-15T03:31:58.294Z,17
2022-11-15T03:37:14.705Z,17
2022-11-15T03:42:31.170Z,17
2022-11-15T03:47:47.603Z,17
2022-11-15T03:53:04.103Z,16
2022-11-15T03:58:20.564Z,14
2022-11-15T04:03:37.024Z,16
2022-11-15T04:08:53.496Z,17
2022-11-15T04:14:09.945Z,16
2022-11-15T04:19:26.389Z,17
2022-11-15T04:24:42.563Z,19
2022-11-15T04:29:59.503Z,18
2022-11-15T04:35:15.961Z,17
2022-11-15T04:40:32.414Z,17
2022-11-15T04:45:48.809Z,16
2022-11-15T04:51:05.249Z,15
2022-11-15T04:56:21.709Z,16
2022-11-15T05:01:43.608Z,17
2022-11-15T05:06:54.647Z,17
2022-11-15T05:12:11.052Z,15
2022-11-15T05:17:27.559Z,15
2022-11-15T05:22:44.053Z,15
2022-11-15T05:28:02.394Z,17
2022-11-15T05:33:18.862Z,17
2022-11-15T05:38:35.360Z,17
2022-11-15T05:43:51.871Z,16
2022-11-15T05:49:08.341Z,17
2022-11-15T05:54:24.839Z,17
2022-11-15T05:59:41.308Z,17
2022-11-15T06:04:57.744Z,18
2022-11-15T06:10:14.222Z,17
2022-11-15T06:15:30.734Z,17
2022-11-15T06:20:47.174Z,17
2022-11-15T06:26:03.997Z,18
2022-11-15T06:31:20.444Z,18
2022-11-15T06:36:36.924Z,19
2022-11-15T06:41:53.434Z,20
2022-11-15T06:47:09.944Z,20
2022-11-15T06:52:26.404Z,23
2022-11-15T06:57:42.913Z,23
2022-11-15T07:02:59.407Z,31
2022-11-15T07:08:16.483Z,27
2022-11-15T07:13:34.085Z,26
2022-11-15T07:18:50.114Z,26
2022-11-15T07:24:06.640Z,25
2022-11-15T07:29:23.901Z,24
2022-11-15T07:34:40.406Z,23
2022-11-15T07:39:57.487Z,23
2022-11-15T07:45:13.940Z,22
2022-11-15T07:50:30.416Z,22
2022-11-15T07:55:46.858Z,20
2022-11-15T08:01:04.193Z,21
2022-11-15T08:06:21.188Z,22
2022-11-15T08:11:37.662Z,22
2022-11-15T08:16:54.079Z,21
2022-11-15T08:22:10.552Z,20
2022-11-15T08:27:27.028Z,18
2022-11-15T08:32:43.452Z,17
2022-11-15T08:37:59.940Z,18
2022-11-15T08:43:16.357Z,16
2022-11-15T08:48:33.202Z,16
2022-11-15T08:53:49.302Z,16
2022-11-15T08:59:05.718Z,16
2022-11-15T09:04:22.956Z,13
2022-11-15T09:09:39.434Z,14
2022-11-15T09:14:55.929Z,14
2022-11-15T09:20:12.359Z,13
2022-11-15T09:25:28.801Z,14
2022-11-15T09:30:45.242Z,14
2022-11-15T09:36:01.800Z,12
2022-11-15T09:41:18.256Z,13
2022-11-15T09:46:34.661Z,15
2022-11-15T09:51:51.157Z,13
2022-11-15T09:57:15.712Z,11
2022-11-15T10:02:25.622Z,11
2022-11-15T10:07:42.024Z,11
2022-11-15T10:12:58.497Z,11
2022-11-15T10:18:14.953Z,10
2022-11-15T10:23:31.395Z,11
2022-11-15T10:28:47.820Z,12
2022-11-15T10:34:04.199Z,14
2022-11-15T10:40:25.493Z,13
2022-11-15T10:44:37.108Z,13
2022-11-15T10:49:55.160Z,14
2022-11-15T10:55:11.620Z,13
2022-11-15T11:00:28.041Z,14
2022-11-15T11:05:44.510Z,14
2022-11-15T11:11:03.833Z,12
2022-11-15T11:16:19.638Z,13
2022-11-15T11:21:39.918Z,12
2022-11-15T11:26:57.018Z,11
2022-11-15T11:32:08.942Z,13
2022-11-15T11:37:25.342Z,12
2022-11-15T11:42:41.785Z,10
2022-11-15T11:47:58.215Z,12
2022-11-15T11:53:14.648Z,12
2022-11-15T11:58:31.492Z,11
2022-11-15T12:03:47.463Z,8
2022-11-15T12:09:03.867Z,8
2022-11-15T12:14:20.305Z,8
2022-11-15T12:19:36.696Z,8
2022-11-15T12:24:53.149Z,9
2022-11-15T12:30:09.572Z,8
2022-11-15T12:35:26.000Z,9
2022-11-15T12:40:42.451Z,9
2022-11-15T12:45:58.826Z,10
2022-11-15T12:51:15.270Z,10
2022-11-15T12:56:31.697Z,10
2022-11-15T13:01:48.169Z,9
2022-11-15T13:07:04.626Z,8
2022-11-15T13:12:20.999Z,9
2022-11-15T13:17:37.457Z,10
2022-11-15T13:22:53.892Z,8
2022-11-15T13:28:10.341Z,9
2022-11-15T13:33:29.378Z,11
2022-11-15T13:38:43.197Z,9
2022-11-15T13:43:59.638Z,10
2022-11-15T13:49:16.110Z,11
2022-11-15T13:54:32.558Z,13
2022-11-15T13:59:48.986Z,14
2022-11-15T14:05:05.472Z,10
2022-11-15T14:10:22.959Z,14
2022-11-15T14:15:39.477Z,15
2022-11-15T14:20:55.886Z,15
2022-11-15T14:26:12.378Z,15
2022-11-15T14:31:28.783Z,16
2022-11-15T14:36:45.240Z,18
2022-11-15T14:42:01.871Z,18
2022-11-15T14:47:18.314Z,20
2022-11-15T14:52:34.734Z,18
2022-11-15T14:57:51.172Z,18
2022-11-15T15:03:07.653Z,20
2022-11-15T15:08:24.172Z,20
2022-11-15T15:13:41.151Z,22
2022-11-15T15:18:58.227Z,25
2022-11-15T15:24:14.705Z,24
2022-11-15T15:29:31.397Z,26
2022-11-15T15:34:47.855Z,28
2022-11-15T15:40:04.345Z,26
2022-11-15T15:45:20.771Z,26
2022-11-15T15:50:37.245Z,29
2022-11-15T15:55:53.466Z,29
2022-11-15T16:01:10.746Z,29
2022-11-15T16:06:27.121Z,28
2022-11-15T16:11:43.560Z,28
2022-11-15T16:17:00.030Z,30
2022-11-15T16:22:16.533Z,29
2022-11-15T16:27:33.002Z,30
2022-11-15T16:32:49.239Z,34
2022-11-15T16:38:05.727Z,39
2022-11-15T16:43:22.183Z,39
2022-11-15T16:48:38.390Z,41
2022-11-15T16:53:54.985Z,42
2022-11-15T16:59:11.860Z,42
2022-11-15T17:04:28.312Z,43
2022-11-15T17:09:45.225Z,45
2022-11-15T17:15:01.799Z,45
2022-11-15T17:20:18.637Z,44
2022-11-15T17:25:35.038Z,45
2022-11-15T17:30:51.883Z,47
2022-11-15T17:36:08.989Z,47
2022-11-15T17:41:26.084Z,48
2022-11-15T17:46:42.596Z,48
2022-11-15T17:51:58.909Z,47
2022-11-15T17:57:15.290Z,46
2022-11-15T18:02:31.877Z,47
2022-11-15T18:07:48.409Z,46
2022-11-15T18:13:05.493Z,47
2022-11-15T18:18:22.659Z,48
2022-11-15T18:23:39.792Z,46
2022-11-15T18:28:56.658Z,45
2022-11-15T18:34:12.852Z,43
2022-11-15T18:39:29.376Z,42
2022-11-15T18:44:45.888Z,40
2022-11-15T18:50:02.434Z,40
2022-11-15T18:55:18.618Z,38
2022-11-15T19:00:35.792Z,41
2022-11-15T19:05:51.990Z,41
2022-11-15T19:11:08.276Z,41
2022-11-15T19:16:24.780Z,40
2022-11-15T19:21:41.306Z,41
2022-11-15T19:26:57.989Z,42
2022-11-15T19:32:14.664Z,44
2022-11-15T19:37:30.914Z,46
2022-11-15T19:42:47.409Z,44
2022-11-15T19:48:04.704Z,44
2022-11-15T19:53:21.179Z,44
2022-11-15T19:58:37.435Z,44
2022-11-15T20:03:53.868Z,44
2022-11-15T20:09:10.332Z,40
2022-11-15T20:14:26.568Z,40
2022-11-15T20:19:43.125Z,41
2022-11-15T20:25:00.186Z,43
2022-11-15T20:30:17.796Z,45
2022-11-15T20:35:35.039Z,45
2022-11-15T20:40:57.449Z,46
2022-11-15T20:46:09.322Z,45
2022-11-15T20:51:25.546Z,48
2022-11-15T20:56:42.055Z,44
2022-11-15T21:01:59.882Z,47
2022-11-15T21:12:32.312Z,45
2022-11-15T21:17:48.751Z,46
2022-11-15T21:23:05.295Z,45
2022-11-15T21:28:21.885Z,47
2022-11-15T21:33:38.934Z,46
2022-11-15T21:38:55.443Z,45
2022-11-15T21:44:11.972Z,46
2022-11-15T21:49:28.914Z,48
2022-11-15T21:54:46.090Z,49
2022-11-15T22:00:02.946Z,49
2022-11-15T22:05:19.524Z,46
2022-11-15T22:10:36.520Z,47
2022-11-15T22:15:53.601Z,46
2022-11-15T22:21:10.429Z,44
2022-11-15T22:26:26.658Z,44
2022-11-15T22:31:43.669Z,44
2022-11-15T22:37:19.615Z,42
2022-11-15T22:42:19.429Z,41
2022-11-15T22:47:33.969Z,41
2022-11-15T22:52:50.197Z,42
2022-11-15T22:58:07.265Z,43
2022-11-15T23:03:23.836Z,40
2022-11-15T23:08:41.406Z,44
2022-11-15T23:13:57.418Z,40
2022-11-15T23:19:13.678Z,41
2022-11-15T23:24:30.159Z,38
2022-11-15T23:29:46.726Z,38
2022-11-15T23:35:03.248Z,39
2022-11-15T23:40:19.482Z,39
2022-11-15T23:45:35.724Z,38
2022-11-15T23:50:52.602Z,38
2022-11-15T23:56:09.892Z,37
